createdAt,value
2023-05-19T00:00:58.944Z,67.69
2023-05-19T00:03:25.930Z,70.38
2023-05-19T00:05:58.156Z,68.55
2023-05-19T00:08:25.081Z,68.49
2023-05-19T00:10:51.984Z,67.92
2023-05-19T00:13:19.799Z,68.07
2023-05-19T00:15:46.836Z,67.29
2023-05-19T00:18:13.706Z,67.79
2023-05-19T00:20:40.433Z,68.33
2023-05-19T00:23:07.140Z,67.58
2023-05-19T00:25:33.835Z,68.97
2023-05-19T00:28:00.513Z,69.02
2023-05-19T00:30:27.258Z,69.74
2023-05-19T00:32:53.989Z,68.03
2023-05-19T00:35:20.797Z,65.56
2023-05-19T00:37:47.544Z,66.98
2023-05-19T00:40:14.869Z,66.67
2023-05-19T00:42:42.132Z,68.39
2023-05-19T00:45:09.142Z,67.34
2023-05-19T00:47:36.030Z,67.98
2023-05-19T00:50:02.736Z,67.63
2023-05-19T00:52:29.519Z,66.81
2023-05-19T00:54:56.184Z,65.97
2023-05-19T00:57:23.602Z,67.23
2023-05-19T00:59:50.550Z,68.05
2023-05-19T01:02:17.402Z,68.40
2023-05-19T01:04:45.128Z,67.80
2023-05-19T01:07:11.806Z,67.14
2023-05-19T01:09:39.365Z,69.25
2023-05-19T01:12:06.682Z,70.09
2023-05-19T01:14:33.501Z,69.02
2023-05-19T01:17:09.726Z,70.45
2023-05-19T01:19:54.565Z,70.00
2023-05-19T01:22:36.111Z,69.57
2023-05-19T01:25:28.251Z,68.81
2023-05-19T01:28:00.490Z,67.91
2023-05-19T01:30:42.775Z,67.71
2023-05-19T01:33:12.811Z,67.90
2023-05-19T01:35:43.909Z,68.84
2023-05-19T01:38:13.154Z,68.14
2023-05-19T01:40:41.423Z,68.18
2023-05-19T01:43:11.829Z,69.80
2023-05-19T01:45:39.957Z,69.92
2023-05-19T01:48:09.910Z,68.63
2023-05-19T01:50:38.174Z,70.07
2023-05-19T01:53:05.105Z,67.19
2023-05-19T01:55:32.134Z,68.32
2023-05-19T01:58:36.558Z,67.42
2023-05-19T02:01:29.703Z,69.32
2023-05-19T02:04:30.531Z,69.04
2023-05-19T02:07:21.526Z,69.21
2023-05-19T02:09:58.765Z,68.46
2023-05-19T02:12:31.004Z,70.10
2023-05-19T02:15:05.573Z,70.07
2023-05-19T02:17:36.085Z,70.25
2023-05-19T02:20:06.529Z,70.54
2023-05-19T02:22:33.269Z,71.42
2023-05-19T02:25:00.021Z,71.16
2023-05-19T02:27:26.887Z,70.50
2023-05-19T02:29:53.826Z,71.30
2023-05-19T02:32:21.304Z,71.58
2023-05-19T02:34:48.216Z,71.81
2023-05-19T02:37:16.425Z,72.03
2023-05-19T02:39:44.088Z,72.73
2023-05-19T02:42:11.277Z,71.35
2023-05-19T02:44:38.090Z,70.20
2023-05-19T02:47:05.077Z,69.77
2023-05-19T02:49:31.771Z,69.25
2023-05-19T02:51:58.432Z,70.77
2023-05-19T02:54:25.132Z,69.45
2023-05-19T02:56:51.810Z,68.70
2023-05-19T02:59:18.500Z,69.00
2023-05-19T03:01:45.262Z,68.30
2023-05-19T03:04:11.925Z,68.71
2023-05-19T03:06:38.662Z,68.08
2023-05-19T03:09:05.373Z,67.57
2023-05-19T03:11:32.246Z,68.87
2023-05-19T03:13:59.296Z,69.02
2023-05-19T03:16:25.991Z,68.83
2023-05-19T03:18:52.756Z,68.58
2023-05-19T03:21:19.426Z,69.81
2023-05-19T03:23:46.098Z,68.29
2023-05-19T03:26:12.799Z,68.92
2023-05-19T03:28:39.476Z,69.98
2023-05-19T03:31:06.179Z,70.68
2023-05-19T03:33:32.900Z,70.54
2023-05-19T03:35:59.617Z,69.26
2023-05-19T03:38:26.405Z,70.08
2023-05-19T03:40:53.062Z,71.56
2023-05-19T03:43:19.693Z,69.41
2023-05-19T03:45:46.497Z,70.06
2023-05-19T03:48:13.274Z,70.27
2023-05-19T03:50:39.951Z,70.00
2023-05-19T03:53:06.650Z,69.76
2023-05-19T03:55:33.442Z,69.61
2023-05-19T03:58:00.181Z,68.61
2023-05-19T04:00:26.869Z,68.09
2023-05-19T04:02:53.604Z,68.42
2023-05-19T04:05:20.509Z,67.91
2023-05-19T04:07:47.295Z,67.04
2023-05-19T04:10:14.033Z,67.01
2023-05-19T04:12:40.728Z,66.52
2023-05-19T04:15:07.951Z,66.47
2023-05-19T04:17:34.840Z,65.82
2023-05-19T04:20:01.681Z,66.27
2023-05-19T04:22:28.415Z,65.79
2023-05-19T04:24:55.133Z,66.37
2023-05-19T04:27:21.890Z,66.07
2023-05-19T04:29:48.688Z,66.62
2023-05-19T04:32:15.954Z,66.89
2023-05-19T04:34:45.460Z,66.37
2023-05-19T04:37:15.168Z,66.07
2023-05-19T04:39:42.905Z,66.65
2023-05-19T04:42:10.028Z,66.59
2023-05-19T04:44:36.708Z,66.90
2023-05-19T04:47:04.240Z,67.13
2023-05-19T04:49:30.924Z,66.95
2023-05-19T04:51:57.718Z,66.30
2023-05-19T04:54:24.380Z,67.02
2023-05-19T04:56:51.089Z,66.75
2023-05-19T04:59:17.758Z,66.70
2023-05-19T05:01:44.467Z,66.46
2023-05-19T05:04:11.488Z,66.05
2023-05-19T05:06:38.196Z,65.87
2023-05-19T05:09:05.122Z,66.75
2023-05-19T05:11:32.241Z,66.54
2023-05-19T05:13:59.321Z,65.77
2023-05-19T05:16:26.568Z,65.72
2023-05-19T05:18:53.627Z,65.51
2023-05-19T05:21:20.807Z,65.66
2023-05-19T05:23:47.814Z,64.81
2023-05-19T05:26:19.452Z,63.36
2023-05-19T05:28:46.190Z,65.18
2023-05-19T05:31:12.939Z,64.94
2023-05-19T05:33:39.868Z,64.46
2023-05-19T05:36:06.943Z,62.22
2023-05-19T05:38:33.628Z,63.77
2023-05-19T05:41:01.631Z,62.72
2023-05-19T05:43:28.520Z,63.55
2023-05-19T05:45:56.980Z,64.51
2023-05-19T05:48:24.341Z,63.83
2023-05-19T05:50:51.994Z,63.34
2023-05-19T05:53:20.317Z,60.72
2023-05-19T05:55:47.997Z,60.98
2023-05-19T05:58:15.736Z,59.30
2023-05-19T06:00:43.730Z,59.41
2023-05-19T06:03:11.530Z,60.31
2023-05-19T06:05:41.314Z,60.05
2023-05-19T06:08:08.068Z,58.09
2023-05-19T06:10:35.082Z,61.58
2023-05-19T06:13:02.014Z,61.77
2023-05-19T06:15:28.724Z,62.99
2023-05-19T06:17:55.484Z,62.40
2023-05-19T06:20:22.259Z,60.58
2023-05-19T06:22:48.977Z,56.88
2023-05-19T06:25:15.727Z,56.79
2023-05-19T06:27:42.410Z,52.93
2023-05-19T06:30:09.420Z,52.18
2023-05-19T06:32:36.177Z,50.98
2023-05-19T06:35:06.149Z,50.35
2023-05-19T06:37:32.835Z,49.76
2023-05-19T06:39:59.597Z,50.78
2023-05-19T06:42:26.280Z,52.20
2023-05-19T06:44:53.282Z,53.29
2023-05-19T06:47:20.024Z,52.38
2023-05-19T06:49:47.600Z,54.02
2023-05-19T06:52:14.316Z,52.92
2023-05-19T06:54:41.037Z,50.05
2023-05-19T06:57:07.877Z,51.08
2023-05-19T06:59:34.560Z,47.74
2023-05-19T07:02:01.261Z,46.00
2023-05-19T07:04:27.999Z,46.36
2023-05-19T07:06:54.678Z,48.51
2023-05-19T07:09:21.469Z,47.81
2023-05-19T07:11:48.752Z,51.39
2023-05-19T07:14:15.481Z,50.08
2023-05-19T07:16:42.252Z,53.55
2023-05-19T07:19:08.957Z,53.85
2023-05-19T07:21:35.817Z,50.66
2023-05-19T07:24:02.497Z,48.25
2023-05-19T07:26:29.385Z,52.51
2023-05-19T07:28:56.446Z,51.64
2023-05-19T07:31:24.464Z,47.93
2023-05-19T07:33:53.123Z,45.72
2023-05-19T07:36:21.247Z,47.15
2023-05-19T07:38:47.998Z,46.85
2023-05-19T07:41:15.175Z,45.39
2023-05-19T07:43:42.956Z,44.11
2023-05-19T07:46:09.842Z,44.90
2023-05-19T07:48:37.123Z,48.29
2023-05-19T07:51:03.932Z,45.51
2023-05-19T07:53:30.782Z,44.51
2023-05-19T07:56:00.269Z,44.08
2023-05-19T07:58:26.999Z,44.89
2023-05-19T08:00:53.658Z,45.92
2023-05-19T08:03:20.872Z,45.40
2023-05-19T08:05:47.842Z,45.94
2023-05-19T08:08:14.693Z,45.17
2023-05-19T08:10:41.346Z,45.33
2023-05-19T08:13:08.126Z,46.08
2023-05-19T08:15:37.488Z,47.71
2023-05-19T08:18:04.293Z,45.38
2023-05-19T08:20:31.501Z,51.18
2023-05-19T08:22:58.619Z,54.17
2023-05-19T08:25:25.379Z,56.41
2023-05-19T08:27:52.071Z,57.84
2023-05-19T08:30:18.757Z,57.16
2023-05-19T08:32:45.558Z,55.70
2023-05-19T08:35:12.318Z,56.82
2023-05-19T08:37:38.990Z,59.53
2023-05-19T08:40:06.497Z,56.68
2023-05-19T08:42:33.450Z,53.93
2023-05-19T08:45:01.580Z,52.75
2023-05-19T08:47:29.481Z,55.05
2023-05-19T08:50:05.393Z,54.17
2023-05-19T08:52:53.553Z,48.62
2023-05-19T08:55:58.864Z,47.04
2023-05-19T08:58:30.364Z,47.98
2023-05-19T09:01:01.122Z,49.56
2023-05-19T09:03:29.477Z,51.32
2023-05-19T09:05:56.380Z,50.36
2023-05-19T09:08:23.254Z,50.61
2023-05-19T09:10:53.000Z,50.28
2023-05-19T09:13:20.117Z,50.72
2023-05-19T09:15:48.142Z,50.43
2023-05-19T09:18:14.885Z,51.60
2023-05-19T09:20:43.945Z,53.70
2023-05-19T09:23:18.473Z,55.12
2023-05-19T09:25:52.924Z,56.93
2023-05-19T09:28:30.579Z,54.35
2023-05-19T09:31:07.301Z,50.88
2023-05-19T09:33:36.411Z,51.58
2023-05-19T09:36:04.481Z,50.71
2023-05-19T09:38:31.399Z,53.14
2023-05-19T09:41:00.335Z,51.09
2023-05-19T09:43:34.597Z,52.95
2023-05-19T09:46:04.368Z,53.71
2023-05-19T09:48:31.227Z,55.19
2023-05-19T09:50:58.199Z,53.07
2023-05-19T09:53:25.187Z,55.41
2023-05-19T09:55:55.901Z,54.92
2023-05-19T09:58:22.705Z,55.87
2023-05-19T10:00:50.948Z,54.22
2023-05-19T10:03:19.768Z,54.03
2023-05-19T10:05:48.581Z,53.22
2023-05-19T10:08:19.200Z,52.31
2023-05-19T10:10:47.158Z,49.79
2023-05-19T10:13:14.002Z,51.46
2023-05-19T10:15:57.283Z,51.79
2023-05-19T10:18:26.601Z,50.28
2023-05-19T10:20:54.626Z,50.27
2023-05-19T10:23:21.318Z,49.48
2023-05-19T10:25:51.205Z,51.46
2023-05-19T10:28:22.584Z,49.17
2023-05-19T10:30:54.795Z,49.36
2023-05-19T10:33:54.455Z,49.60
2023-05-19T10:36:26.937Z,50.25
2023-05-19T10:39:03.805Z,49.13
2023-05-19T10:41:55.433Z,49.29
2023-05-19T10:44:40.032Z,48.66
2023-05-19T10:47:07.793Z,51.29
2023-05-19T10:49:36.252Z,48.58
2023-05-19T10:52:23.031Z,49.71
2023-05-19T10:54:50.054Z,49.82
2023-05-19T10:57:26.392Z,50.63
2023-05-19T10:59:53.086Z,50.66
2023-05-19T11:02:39.269Z,50.37
2023-05-19T11:05:12.280Z,48.90
2023-05-19T11:07:42.357Z,48.19
2023-05-19T11:10:12.043Z,48.04
2023-05-19T11:12:44.762Z,47.51
2023-05-19T11:15:15.472Z,48.93
2023-05-19T11:17:49.011Z,48.19
2023-05-19T11:20:29.390Z,47.55
2023-05-19T11:23:06.106Z,48.78
2023-05-19T11:25:42.628Z,47.62
2023-05-19T11:28:11.022Z,47.66
2023-05-19T11:30:39.786Z,46.90
2023-05-19T11:33:07.867Z,46.13
2023-05-19T11:35:36.508Z,46.57
2023-05-19T11:38:03.745Z,46.27
2023-05-19T11:40:30.926Z,47.14
2023-05-19T11:42:58.451Z,47.01
2023-05-19T11:45:31.556Z,50.47
2023-05-19T11:48:01.931Z,48.15
2023-05-19T11:50:31.405Z,49.33
2023-05-19T11:53:01.213Z,50.89
2023-05-19T11:55:28.537Z,49.99
2023-05-19T11:58:02.950Z,51.07
2023-05-19T12:00:35.958Z,50.00
2023-05-19T12:03:03.290Z,50.54
2023-05-19T12:05:31.506Z,48.42
2023-05-19T12:08:00.607Z,48.31
2023-05-19T12:10:30.904Z,49.57
2023-05-19T12:12:57.847Z,49.58
2023-05-19T12:15:25.983Z,49.08
2023-05-19T12:18:01.153Z,49.67
2023-05-19T12:20:30.524Z,49.16
2023-05-19T12:22:58.759Z,50.89
2023-05-19T12:25:25.652Z,50.92
2023-05-19T12:27:58.087Z,51.16
2023-05-19T12:30:27.995Z,50.65
2023-05-19T12:32:55.452Z,49.69
2023-05-19T12:35:27.402Z,48.23
2023-05-19T12:37:54.249Z,47.38
2023-05-19T12:40:21.576Z,49.07
2023-05-19T12:42:49.347Z,48.39
2023-05-19T12:45:21.116Z,47.80
2023-05-19T12:47:49.307Z,47.59
2023-05-19T12:50:16.079Z,47.54
2023-05-19T12:52:50.158Z,49.11
2023-05-19T12:55:17.501Z,48.50
2023-05-19T12:57:49.903Z,48.39
2023-05-19T13:00:22.155Z,46.87
2023-05-19T13:03:07.011Z,47.35
2023-05-19T13:05:42.314Z,47.62
2023-05-19T13:08:09.074Z,48.95
2023-05-19T13:10:38.628Z,47.89
2023-05-19T13:13:06.581Z,48.21
2023-05-19T13:15:40.233Z,47.76
2023-05-19T13:18:10.382Z,48.57
2023-05-19T13:20:42.084Z,48.15
2023-05-19T13:23:13.315Z,48.72
2023-05-19T13:25:41.048Z,48.49
2023-05-19T13:28:07.794Z,47.85
2023-05-19T13:30:37.747Z,48.27
2023-05-19T13:33:04.886Z,48.72
2023-05-19T13:35:31.715Z,48.79
2023-05-19T13:37:58.527Z,48.29
2023-05-19T13:40:25.232Z,48.32
2023-05-19T13:42:52.143Z,46.71
2023-05-19T13:45:18.867Z,45.35
2023-05-19T13:47:45.761Z,46.25
2023-05-19T13:50:12.601Z,45.68
2023-05-19T13:52:39.502Z,45.95
2023-05-19T13:55:07.427Z,45.75
2023-05-19T13:57:34.128Z,45.35
2023-05-19T14:00:03.691Z,44.98
2023-05-19T14:02:31.150Z,46.68
2023-05-19T14:04:58.095Z,46.48
2023-05-19T14:07:24.760Z,47.33
2023-05-19T14:09:51.430Z,46.46
2023-05-19T14:12:18.069Z,46.41
2023-05-19T14:14:44.919Z,46.50
2023-05-19T14:17:15.149Z,46.28
2023-05-19T14:19:41.804Z,45.93
2023-05-19T14:22:08.449Z,46.33
2023-05-19T14:24:35.285Z,47.32
2023-05-19T14:27:01.954Z,47.32
2023-05-19T14:29:28.631Z,46.57
2023-05-19T14:31:55.304Z,48.06
2023-05-19T14:34:22.083Z,46.71
2023-05-19T14:36:48.815Z,47.19
2023-05-19T14:39:15.719Z,46.32
2023-05-19T14:41:42.443Z,47.77
2023-05-19T14:44:09.205Z,48.46
2023-05-19T14:46:35.922Z,49.17
2023-05-19T14:49:02.716Z,48.45
2023-05-19T14:51:29.353Z,49.45
2023-05-19T14:53:56.044Z,49.51
2023-05-19T14:56:22.729Z,49.59
2023-05-19T14:58:49.433Z,49.51
2023-05-19T15:01:16.290Z,49.77
2023-05-19T15:03:43.112Z,49.82
2023-05-19T15:06:10.469Z,49.82
2023-05-19T15:08:37.540Z,49.46
2023-05-19T15:11:04.738Z,50.01
2023-05-19T15:13:31.415Z,49.17
2023-05-19T15:16:12.379Z,49.20
2023-05-19T15:18:43.578Z,48.86
2023-05-19T15:21:10.311Z,49.94
2023-05-19T15:23:36.980Z,49.93
2023-05-19T15:26:03.943Z,50.54
2023-05-19T15:28:32.806Z,50.64
2023-05-19T15:30:59.615Z,50.91
2023-05-19T15:33:26.293Z,50.86
2023-05-19T15:35:52.944Z,51.85
2023-05-19T15:38:19.911Z,53.13
2023-05-19T15:40:47.330Z,51.75
2023-05-19T15:43:14.178Z,52.74
2023-05-19T15:45:40.966Z,52.95
2023-05-19T15:48:08.422Z,52.48
2023-05-19T15:50:36.386Z,52.35
2023-05-19T15:53:03.372Z,53.56
2023-05-19T15:55:30.068Z,54.05
2023-05-19T15:57:56.746Z,54.85
2023-05-19T16:00:23.472Z,54.31
2023-05-19T16:02:50.217Z,55.17
2023-05-19T16:05:17.063Z,55.27
2023-05-19T16:07:43.751Z,55.18
2023-05-19T16:10:10.625Z,55.81
2023-05-19T16:12:37.288Z,56.44
2023-05-19T16:15:04.199Z,56.84
2023-05-19T16:17:30.934Z,57.04
2023-05-19T16:19:57.755Z,56.79
2023-05-19T16:22:24.491Z,56.56
2023-05-19T16:24:51.961Z,56.66
2023-05-19T16:27:19.050Z,57.19
2023-05-19T16:29:45.886Z,57.11
2023-05-19T16:32:13.157Z,57.22
2023-05-19T16:34:40.128Z,56.93
2023-05-19T16:37:07.031Z,56.22
2023-05-19T16:39:36.063Z,56.87
2023-05-19T16:42:03.924Z,56.71
2023-05-19T16:44:30.587Z,56.81
2023-05-19T16:46:57.348Z,57.32
2023-05-19T16:49:24.037Z,57.51
2023-05-19T16:51:50.742Z,57.27
2023-05-19T16:54:17.478Z,57.15
2023-05-19T16:56:44.290Z,57.09
2023-05-19T16:59:10.948Z,57.15
2023-05-19T17:01:37.674Z,57.23
2023-05-19T17:04:04.477Z,57.43
2023-05-19T17:06:34.043Z,57.95
2023-05-19T17:09:00.766Z,57.75
2023-05-19T17:11:27.834Z,57.97
2023-05-19T17:13:54.557Z,58.06
2023-05-19T17:16:21.324Z,57.87
2023-05-19T17:18:48.147Z,57.80
2023-05-19T17:21:15.160Z,56.86
2023-05-19T17:23:41.826Z,56.48
2023-05-19T17:26:08.775Z,56.83
2023-05-19T17:28:35.481Z,57.40
2023-05-19T17:31:09.731Z,57.27
2023-05-19T17:33:36.774Z,55.99
2023-05-19T17:36:04.442Z,56.36
2023-05-19T17:38:31.247Z,55.82
2023-05-19T17:40:58.903Z,55.87
2023-05-19T17:43:25.810Z,55.73
2023-05-19T17:45:52.806Z,55.88
2023-05-19T17:48:19.697Z,56.72
2023-05-19T17:50:47.608Z,57.97
2023-05-19T17:53:16.742Z,58.38
2023-05-19T17:55:59.101Z,57.69
2023-05-19T17:58:26.659Z,58.38
2023-05-19T18:00:53.890Z,57.90
2023-05-19T18:03:24.159Z,56.88
2023-05-19T18:05:51.270Z,56.67
2023-05-19T18:08:18.468Z,57.45
2023-05-19T18:10:45.391Z,57.42
2023-05-19T18:13:12.250Z,57.17
2023-05-19T18:15:38.963Z,57.56
2023-05-19T18:18:05.741Z,57.89
2023-05-19T18:20:34.943Z,58.40
2023-05-19T18:23:02.271Z,59.01
2023-05-19T18:25:29.081Z,59.00
2023-05-19T18:27:55.842Z,58.85
2023-05-19T18:30:23.179Z,59.36
2023-05-19T18:32:49.918Z,59.86
2023-05-19T18:35:16.680Z,59.74
2023-05-19T18:37:45.946Z,60.07
2023-05-19T18:40:12.712Z,59.86
2023-05-19T18:42:39.460Z,60.39
2023-05-19T18:45:06.576Z,60.54
2023-05-19T18:47:33.410Z,60.72
2023-05-19T18:50:00.208Z,61.03
2023-05-19T18:52:26.943Z,61.08
2023-05-19T18:54:53.832Z,61.66
2023-05-19T18:57:20.510Z,61.65
2023-05-19T18:59:47.204Z,62.30
2023-05-19T19:02:13.950Z,61.55
2023-05-19T19:04:40.729Z,61.44
2023-05-19T19:07:07.503Z,62.01
2023-05-19T19:09:34.269Z,62.78
2023-05-19T19:12:00.961Z,62.57
2023-05-19T19:14:27.702Z,62.39
2023-05-19T19:16:54.462Z,62.65
2023-05-19T19:19:21.346Z,62.54
2023-05-19T19:21:48.133Z,63.26
2023-05-19T19:24:14.938Z,63.57
2023-05-19T19:26:41.694Z,63.50
2023-05-19T19:29:08.396Z,63.49
2023-05-19T19:31:35.114Z,63.83
2023-05-19T19:34:01.812Z,63.65
2023-05-19T19:36:28.499Z,63.52
2023-05-19T19:38:55.205Z,63.09
2023-05-19T19:41:21.891Z,63.33
2023-05-19T19:43:48.628Z,63.75
2023-05-19T19:46:15.320Z,63.42
2023-05-19T19:48:42.278Z,64.09
2023-05-19T19:51:09.016Z,64.07
2023-05-19T19:53:35.746Z,64.07
2023-05-19T19:56:03.482Z,64.97
2023-05-19T19:58:30.265Z,64.85
2023-05-19T20:01:01.726Z,65.12
2023-05-19T20:03:28.712Z,65.34
2023-05-19T20:05:56.604Z,65.78
2023-05-19T20:08:24.945Z,66.19
2023-05-19T20:10:52.194Z,66.03
2023-05-19T20:13:19.490Z,66.08
2023-05-19T20:15:49.401Z,65.86
2023-05-19T20:18:16.150Z,66.20
2023-05-19T20:20:43.000Z,66.40
2023-05-19T20:23:09.792Z,66.23
2023-05-19T20:25:42.540Z,66.77
2023-05-19T20:28:17.032Z,66.20
2023-05-19T20:30:44.041Z,66.55
2023-05-19T20:33:10.778Z,66.34
2023-05-19T20:35:37.896Z,66.19
2023-05-19T20:38:04.657Z,66.03
2023-05-19T20:40:31.284Z,66.15
2023-05-19T20:42:58.391Z,66.91
2023-05-19T20:45:25.089Z,67.24
2023-05-19T20:47:52.493Z,66.54
2023-05-19T20:50:19.413Z,67.30
2023-05-19T20:52:46.101Z,66.76
2023-05-19T20:55:12.774Z,66.59
2023-05-19T20:57:39.536Z,66.61
2023-05-19T21:00:06.977Z,66.66
2023-05-19T21:02:36.454Z,66.16
2023-05-19T21:05:04.028Z,67.07
2023-05-19T21:07:30.854Z,67.47
2023-05-19T21:09:57.524Z,68.11
2023-05-19T21:12:24.186Z,68.00
2023-05-19T21:14:51.856Z,67.27
2023-05-19T21:17:18.510Z,68.04
2023-05-19T21:19:45.184Z,67.68
2023-05-19T21:22:11.880Z,67.94
2023-05-19T21:24:38.582Z,67.80
2023-05-19T21:27:05.472Z,68.14
2023-05-19T21:29:32.143Z,68.43
2023-05-19T21:32:01.376Z,68.20
2023-05-19T21:34:28.053Z,68.39
2023-05-19T21:36:54.864Z,68.49
2023-05-19T21:39:21.501Z,68.80
2023-05-19T21:41:48.244Z,68.36
2023-05-19T21:44:15.034Z,68.94
2023-05-19T21:46:41.806Z,69.40
2023-05-19T21:49:10.253Z,68.95
2023-05-19T21:51:36.932Z,69.41
2023-05-19T21:54:03.630Z,69.80
2023-05-19T21:56:30.310Z,69.58
2023-05-19T21:58:57.111Z,69.63
2023-05-19T22:01:23.815Z,69.39
2023-05-19T22:03:50.562Z,70.02
2023-05-19T22:06:17.232Z,70.15
2023-05-19T22:08:44.006Z,70.24
2023-05-19T22:11:10.694Z,70.36
2023-05-19T22:13:37.501Z,70.22
2023-05-19T22:16:04.450Z,70.10
2023-05-19T22:18:31.148Z,70.35
2023-05-19T22:20:57.830Z,70.34
2023-05-19T22:23:24.483Z,70.34
2023-05-19T22:25:51.367Z,70.30
2023-05-19T22:28:18.050Z,70.47
2023-05-19T22:30:44.717Z,70.86
2023-05-19T22:33:12.706Z,71.06
2023-05-19T22:35:39.542Z,71.07
2023-05-19T22:38:07.470Z,71.80
2023-05-19T22:40:36.690Z,70.76
2023-05-19T22:43:03.560Z,70.55
2023-05-19T22:45:31.219Z,71.45
2023-05-19T22:47:58.343Z,70.97
2023-05-19T22:50:25.099Z,71.63
2023-05-19T22:52:51.765Z,71.80
2023-05-19T22:55:18.470Z,71.67
2023-05-19T22:57:45.214Z,71.70
2023-05-19T23:00:12.685Z,71.58
2023-05-19T23:02:42.595Z,72.05
2023-05-19T23:05:09.414Z,72.09
2023-05-19T23:07:36.365Z,71.77
2023-05-19T23:10:03.248Z,71.95
2023-05-19T23:12:30.000Z,72.39
2023-05-19T23:14:56.759Z,71.87
2023-05-19T23:17:23.617Z,72.19
2023-05-19T23:19:50.409Z,72.67
2023-05-19T23:22:17.163Z,72.59
2023-05-19T23:24:43.888Z,72.84
2023-05-19T23:27:10.566Z,72.48
2023-05-19T23:29:37.300Z,72.64
2023-05-19T23:32:04.201Z,72.05
2023-05-19T23:34:30.877Z,73.27
2023-05-19T23:36:57.554Z,73.44
2023-05-19T23:39:24.897Z,73.01
2023-05-19T23:41:51.699Z,72.81
2023-05-19T23:44:19.217Z,73.14
2023-05-19T23:46:46.021Z,72.93
2023-05-19T23:49:12.733Z,72.43
2023-05-19T23:51:39.489Z,72.85
2023-05-19T23:54:06.239Z,72.74
2023-05-19T23:56:32.889Z,73.05
2023-05-19T23:59:00.658Z,72.48
